»·PEaware :: N912NB KSJC-KCMA

N912NB :: KSJC-KCMA

FLIGHT INFORMATION

Flight Status: Arrived
Operator: Privately registered:
United States
More flights under this callsign
Pilot: Patricio R. (14780)
Aircraft: BOEING 737-200
(B732)
More flights by this aircraft type
Origin: KSJC Mineta San Jose Intl
United States
Destination: KCMA Camarillo
United States
More flights between these airports :: More routes between these airports
Route: +SJC2 AVE V107 FIM
File this flight plan on PilotEdge
Remarks:
Altitude:
(Current/Filed)
29,000ft
Speed:
(Current/Filed)
446kts
Departed: 08-Oct-18 01:36 PM
Arrived: 08-Oct-18 02:30 PM
Distance/Time
Traveled:
234nm/0:54
Distance/Time
To Go:
Arrived

Flight Plot

Page will automatically refresh every two minutes.

Flight plan parsing failed; only flown route is shown


Map Options




Map Legend


Flown Route
Filed Route
Departure Airport
Arrival Airport
Navaid (VOR, NDB)
Fix

Horizontal Profiles

Position Reports

Time Latitude Longitude Heading Altitude Ground
Speed
08-Oct-18 13:27 37.357333 -121.928937 0 71ft 0kts
08-Oct-18 13:28 37.357333 -121.928937 226 71ft 0kts
08-Oct-18 13:29 37.357333 -121.928937 226 71ft 0kts
08-Oct-18 13:30 37.357333 -121.928937 226 71ft 0kts
08-Oct-18 13:31 37.357333 -121.928937 226 71ft 0kts
08-Oct-18 13:32 37.357333 -121.928937 226 71ft 0kts
08-Oct-18 13:33 37.357333 -121.928937 226 71ft 0kts
08-Oct-18 13:34 37.357333 -121.928937 226 71ft 0kts
08-Oct-18 13:35 37.356038 -121.926814 138 71ft 18kts
08-Oct-18 13:36 37.354615 -121.922866 138 71ft 13kts
08-Oct-18 13:37 37.353124 -121.919389 320 71ft 19kts
08-Oct-18 13:38 37.373616 -121.941660 320 694ft 176kts
08-Oct-18 13:39 37.424456 -121.982605 9 3525ft 207kts
08-Oct-18 13:40 37.441621 -121.930382 99 5077ft 262kts
08-Oct-18 13:41 37.385023 -121.839676 135 7721ft 299kts
08-Oct-18 13:42 37.333879 -121.781154 133 9733ft 308kts
08-Oct-18 13:43 37.269420 -121.708421 133 12023ft 316kts
08-Oct-18 13:44 37.202997 -121.633975 133 14008ft 326kts
08-Oct-18 13:45 37.134524 -121.557650 133 15841ft 335kts
08-Oct-18 13:46 37.063847 -121.478988 133 17459ft 346kts
08-Oct-18 13:47 36.990690 -121.397787 134 18942ft 357kts
08-Oct-18 13:48 36.915651 -121.314414 135 20319ft 366kts
08-Oct-18 13:49 36.838490 -121.230368 135 21554ft 373kts
08-Oct-18 13:50 36.759933 -121.144290 135 22691ft 379kts
08-Oct-18 13:51 36.680280 -121.056897 136 23717ft 385kts
08-Oct-18 13:52 36.599368 -120.968288 136 24628ft 391kts
08-Oct-18 13:53 36.517289 -120.878740 136 25410ft 398kts
08-Oct-18 13:54 36.430718 -120.791427 141 26098ft 406kts
08-Oct-18 13:55 36.342103 -120.703538 137 26742ft 411kts
08-Oct-18 13:56 36.253742 -120.611170 137 26913ft 423kts
08-Oct-18 13:57 36.163462 -120.516296 137 26914ft 428kts
08-Oct-18 13:58 36.071964 -120.420504 136 26915ft 434kts
08-Oct-18 13:59 35.980106 -120.324209 137 26913ft 438kts
08-Oct-18 14:00 35.888083 -120.227935 138 26907ft 442kts
08-Oct-18 14:01 35.794515 -120.131645 137 26905ft 443kts
08-Oct-18 14:02 35.700180 -120.033933 137 26906ft 444kts
08-Oct-18 14:03 35.603635 -119.940093 143 26905ft 446kts
08-Oct-18 14:04 35.501434 -119.853387 143 26894ft 448kts
08-Oct-18 14:05 35.399118 -119.765870 143 26885ft 449kts
08-Oct-18 14:06 35.296889 -119.678566 143 26888ft 450kts
08-Oct-18 14:07 35.194847 -119.591786 143 26872ft 432kts
08-Oct-18 14:08 35.100943 -119.512039 143 25601ft 404kts
08-Oct-18 14:09 35.010399 -119.435478 142 23849ft 391kts
08-Oct-18 14:10 34.922723 -119.361382 143 22182ft 378kts
08-Oct-18 14:11 34.843832 -119.295414 144 20600ft 367kts
08-Oct-18 14:12 34.761526 -119.226462 144 18958ft 354kts
08-Oct-18 14:13 34.682519 -119.158940 143 17321ft 343kts
08-Oct-18 14:14 34.605619 -119.093324 143 15709ft 334kts
08-Oct-18 14:15 34.531099 -119.029703 143 14142ft 325kts
08-Oct-18 14:16 34.458353 -118.967684 143 12632ft 315kts
08-Oct-18 14:17 34.387691 -118.907597 144 11132ft 307kts
08-Oct-18 14:18 34.317940 -118.850513 147 9660ft 300kts
08-Oct-18 14:19 34.249901 -118.796984 142 8255ft 293kts
08-Oct-18 14:20 34.237397 -118.707284 79 6748ft 289kts
08-Oct-18 14:21 34.237115 -118.616478 128 5596ft 270kts
08-Oct-18 14:22 34.175311 -118.621550 242 4436ft 258kts
08-Oct-18 14:23 34.195173 -118.691823 304 4398ft 221kts
08-Oct-18 14:24 34.228182 -118.744156 304 4387ft 175kts
08-Oct-18 14:25 34.255874 -118.790034 278 3600ft 162kts
08-Oct-18 14:26 34.247068 -118.841588 256 3424ft 166kts
08-Oct-18 14:27 34.238346 -118.894649 258 3071ft 158kts
08-Oct-18 14:28 34.230965 -118.947352 258 2097ft 159kts
08-Oct-18 14:29 34.223624 -118.997632 253 1685ft 153kts
08-Oct-18 14:30 34.213688 -119.043490 262 685ft 135kts
08-Oct-18 14:31 34.213730 -119.088084 267 89ft 127kts
08-Oct-18 14:32 34.213057 -119.104087 164 86ft 0kts
08-Oct-18 14:33 34.212695 -119.103752 127 86ft 8kts
08-Oct-18 14:34 34.211056 -119.098947 90 86ft 19kts
08-Oct-18 14:35 34.210729 -119.094497 90 86ft 0kts
08-Oct-18 14:36 34.210729 -119.094497 90 86ft 0kts

Navigation Log

Ident Type
Flight plan parsing failed, navigation log unavailable